Latest Weather Observations for Edinburgh

IDS60801

Issued at 8:31 pm CDT Tuesday 21 February 2017 (issued every 30 minutes, with the page automatically refreshed every 10 minutes)

About weather observations | Map of weather stations | Latest weather observations for SA | Other Formats
Station Details ID: 023083 Name: EDINBURGH RAAF Lat: -34.71 Lon: 138.62 Height: 16.54 m
Data from the previous 72 hours. | See also: Recent months at Edinburgh
Date/Time
CDT
Temp
°C
App
Temp
°C
Dew
Point
°C
Rel
Hum
%
Delta-T
°C
Wind Press
QNH
hPa
Press
MSL
hPa
Rain since
9am
mm
Dir  Spd
km/h
Gust
km/h
Spd
kts
Gust
kts
21/08:00pm 26.6 24.5 6.6 28 10.5 S 7 9 4 5 1012.3 1012.2 0.0
21/07:30pm 27.0 24.6 6.9 28 10.6 SSW 9 9 5 5 1012.1 1012.0 0.0
21/07:00pm 28.2 25.3 6.3 25 11.5 SW 11 15 6 8 1011.9 1011.8 0.0
21/06:30pm 28.5 24.4 6.0 24 11.8 SW 17 22 9 12 1011.9 1011.8 0.0
21/06:00pm 29.1 25.0 7.7 26 11.6 SW 19 26 10 14 1012.0 1011.9 0.0
21/05:30pm 29.7 25.2 7.0 24 12.2 WSW 20 26 11 14 1012.2 1012.1 0.0
21/05:00pm 29.7 25.3 7.6 25 12.0 WSW 20 32 11 17 1012.5 1012.4 0.0
21/04:30pm 30.3 27.0 8.1 25 12.2 SW 15 22 8 12 1012.8 1012.7 0.0
21/04:00pm 29.7 26.5 7.0 24 12.2 WSW 13 22 7 12 1013.3 1013.2 0.0
21/03:30pm 29.2 25.9 6.6 24 12.0 SSW 13 20 7 11 1013.8 1013.7 0.0
21/03:00pm 29.0 25.4 5.1 22 12.4 WNW 13 20 7 11 1014.5 1014.4 0.0
21/02:30pm 29.2 24.8 7.2 25 11.8 W 20 35 11 19 1014.9 1014.8 0.0
21/02:00pm 28.9 25.5 5.7 23 12.1 NNW 13 26 7 14 1015.6 1015.5 0.0
21/01:30pm 28.2 24.0 5.7 24 11.7 NNE 17 26 9 14 1016.0 1015.9 0.0
21/01:00pm 27.3 24.6 5.6 25 11.2 NNE 9 24 5 13 1016.4 1016.3 0.0
21/12:30pm 27.2 23.8 6.0 26 11.0 NNE 13 28 7 15 1016.9 1016.8 0.0
21/12:00pm 26.6 23.5 7.1 29 10.3 NNE 13 19 7 10 1017.6 1017.5 0.0
21/11:30am 25.5 20.4 6.2 29 10.0 NNE 22 35 12 19 1018.1 1018.0 0.0
21/11:00am 23.6 18.4 5.5 31 9.1 NE 22 30 12 16 1018.5 1018.4 0.0
21/10:30am 22.5 16.9 5.4 33 8.5 NE 24 33 13 18 1018.7 1018.6 0.0
21/10:00am 21.6 15.0 5.9 36 7.9 NE 30 35 16 19 1018.8 1018.7 0.0
21/09:30am 20.7 15.3 6.3 39 7.2 NE 24 32 13 17 1019.0 1018.9 0.0
21/09:00am 19.3 13.3 5.4 40 6.8 NE 26 37 14 20 1018.9 1018.8 0.2
21/08:30am 15.7 14.0 7.5 58 4.1 NNE 6 7 3 4 1018.9 1018.8 0.2
21/08:00am 13.3 11.9 7.3 67 2.9 NNE 4 7 2 4 1018.9 1018.8 0.2
21/07:30am 11.6 9.1 6.5 71 2.4 NNE 9 11 5 6 1018.3 1018.2 0.2
21/07:00am 12.9 10.4 6.5 65 3.1 ENE 9 11 5 6 1018.1 1018.0 0.2
21/06:30am 12.7 10.1 6.1 64 3.1 ENE 9 11 5 6 1018.0 1017.9 0.2
21/06:00am 13.5 10.5 5.9 60 3.6 ENE 11 13 6 7 1017.8 1017.7 0.2
21/05:30am 12.5 9.6 6.3 66 2.9 NE 11 15 6 8 1017.9 1017.8 0.2
21/05:00am 12.6 9.9 7.3 70 2.6 NE 11 17 6 9 1017.9 1017.8 0.2
21/04:30am 12.0 9.2 7.1 72 2.3 NNE 11 13 6 7 1017.9 1017.8 0.2
21/04:00am 11.9 10.1 7.8 76 2.0 NNE 7 11 4 6 1017.9 1017.8 0.2
21/03:30am 12.0 11.1 6.1 67 2.8 CALM 0 0 0 0 1017.9 1017.8 0.2
21/03:00am 13.6 12.2 7.4 66 3.0 SE 4 7 2 4 1018.1 1018.0 0.2
21/02:30am 13.9 12.0 7.7 66 3.1 ESE 7 9 4 5 1018.4 1018.3 0.2
21/02:00am 14.0 12.6 7.1 63 3.4 E 4 7 2 4 1018.7 1018.6 0.2
21/01:30am 14.3 12.5 7.8 65 3.2 ENE 7 13 4 7 1018.7 1018.6 0.2
21/01:00am 15.0 12.7 7.5 61 3.7 E 9 13 5 7 1018.8 1018.7 0.2
21/12:30am 15.0 13.2 7.8 62 3.6 ESE 7 15 4 8 1019.0 1018.9 0.2
21/12:00am 15.3 12.6 7.3 59 3.9 ESE 11 17 6 9 1019.4 1019.3 0.2
 
Date/Time
CDT
Temp
°C
App
Temp
°C
Dew
Point
°C
Rel
Hum
%
Delta-T
°C
Wind Press
QNH
hPa
Press
MSL
hPa
Rain since
9am
mm
Dir  Spd
km/h
Gust
km/h
Spd
kts
Gust
kts
20/11:30pm 15.4 12.2 6.9 57 4.2 ESE 13 17 7 9 1019.3 1019.2 0.2
20/11:00pm 15.4 12.2 6.9 57 4.2 ESE 13 19 7 10 1019.4 1019.3 0.2
20/10:30pm 15.8 13.0 7.1 56 4.3 SE 11 17 6 9 1019.3 1019.2 0.2
20/10:00pm 16.3 12.8 7.0 54 4.6 ESE 15 20 8 11 1019.1 1019.0 0.2
20/09:30pm 17.0 13.9 7.1 52 4.9 ESE 13 22 7 12 1018.8 1018.7 0.2
20/09:00pm 17.8 15.0 8.4 54 4.8 SSE 13 19 7 10 1018.5 1018.4 0.2
20/08:30pm 17.3 14.7 9.2 59 4.2 SW 13 17 7 9 1018.3 1018.2 0.2
20/08:00pm 18.1 14.6 8.9 55 4.8 SW 17 24 9 13 1018.1 1018.0 0.2
20/07:30pm 19.0 14.5 8.4 50 5.5 SW 22 26 12 14 1017.7 1017.6 0.2
20/07:00pm 19.9 15.2 7.9 46 6.2 SW 22 28 12 15 1017.3 1017.2 0.2
20/06:30pm 20.5 15.7 7.2 42 6.8 WSW 22 30 12 16 1017.1 1017.0 0.2
20/06:00pm 21.2 16.3 7.1 40 7.2 WSW 22 30 12 16 1016.9 1016.8 0.2
20/05:30pm 21.0 15.7 6.9 40 7.2 WSW 24 32 13 17 1017.0 1016.9 0.2
20/05:00pm 21.5 16.9 8.1 42 7.0 WSW 22 33 12 18 1016.9 1016.8 0.2
20/04:30pm 21.2 16.4 7.4 41 7.1 SW 22 30 12 16 1017.0 1016.9 0.2
20/04:00pm 21.2 16.0 7.1 40 7.2 SSW 24 32 13 17 1017.0 1016.9 0.2
20/03:30pm 21.3 16.2 7.5 41 7.1 SSW 24 33 13 18 1017.2 1017.1 0.2
20/03:00pm 21.2 15.8 7.8 42 6.9 WSW 26 39 14 21 1017.3 1017.2 0.2
20/02:30pm 21.5 15.9 8.7 44 6.8 WSW 28 37 15 20 1017.6 1017.5 0.2
20/02:00pm 20.5 15.4 7.5 43 6.7 WSW 24 37 13 20 1017.9 1017.8 0.2
20/01:30pm 20.3 16.5 7.7 44 6.5 SW 17 35 9 19 1018.0 1017.9 0.2
20/01:00pm 19.3 15.2 8.0 48 5.8 WSW 19 26 10 14 1018.2 1018.1 0.2
20/12:30pm 19.3 15.6 8.0 48 5.8 WSW 17 28 9 15 1018.4 1018.3 0.2
20/12:00pm 19.8 17.2 7.9 46 6.1 SSW 11 20 6 11 1018.5 1018.4 0.2
20/11:30am 19.0 16.9 8.1 49 5.6 SW 9 13 5 7 1018.7 1018.6 0.2
20/11:00am 18.2 16.6 8.7 54 4.9 S 7 17 4 9 1019.0 1018.9 0.0
20/10:30am 17.9 16.3 8.7 55 4.7 SW 7 11 4 6 1019.2 1019.1 0.0
20/10:00am 17.2 15.6 8.6 57 4.4 N 7 11 4 6 1019.2 1019.1 0.0
20/09:30am 16.6 15.5 8.3 58 4.2 NNE 4 9 2 5 1019.1 1019.0 0.0
20/09:00am 16.0 14.1 9.0 63 3.6 NNE 9 13 5 7 1018.8 1018.7 0.0
20/08:30am 15.1 13.0 9.7 70 2.8 NNE 11 13 6 7 1018.7 1018.6 0.0
20/08:00am 14.4 12.7 10.0 75 2.3 NNE 9 13 5 7 1018.6 1018.5 0.0
20/07:30am 13.5 11.0 9.7 78 1.9 N 13 15 7 8 1018.1 1018.0 0.0
20/07:00am 12.9 10.7 9.5 80 1.7 N 11 13 6 7 1017.7 1017.6 0.0
20/06:30am 12.7 11.6 9.9 83 1.4 NE 6 7 3 4 1017.6 1017.5 0.0
20/06:00am 11.3 8.5 8.5 83 1.4 NE 13 13 7 7 1017.2 1017.1 0.0
20/05:30am 12.5 10.4 8.4 76 2.0 ENE 9 11 5 6 1017.0 1016.9 0.0
20/05:00am 13.8 12.2 8.6 71 2.6 ESE 7 9 4 5 1016.7 1016.6 0.0
20/04:30am 14.5 12.5 8.7 68 2.9 SSE 9 17 5 9 1016.6 1016.5 0.0
20/04:00am 14.9 13.4 9.3 69 2.9 S 7 11 4 6 1016.5 1016.4 0.0
20/03:30am 15.1 13.2 9.2 68 3.0 S 9 13 5 7 1016.5 1016.4 0.0
20/03:00am 15.1 12.5 9.2 68 3.0 S 13 17 7 9 1016.7 1016.6 0.0
20/02:30am 15.1 13.2 9.2 68 3.0 S 9 13 5 7 1016.8 1016.7 0.0
20/02:00am 14.6 12.2 10.2 75 2.3 SSW 13 15 7 8 1017.0 1016.9 0.0
20/01:30am 15.1 12.9 9.5 69 2.9 SSW 11 17 6 9 1017.0 1016.9 0.0
20/01:00am 15.0 12.8 9.4 69 2.9 SSE 11 17 6 9 1017.1 1017.0 0.0
20/12:30am 14.6 12.7 9.2 70 2.8 S 9 15 5 8 1017.0 1016.9 0.0
20/12:00am 14.8 12.6 9.2 69 2.9 S 11 17 6 9 1017.1 1017.0 0.0
 
Date/Time
CDT
Temp
°C
App
Temp
°C
Dew
Point
°C
Rel
Hum
%
Delta-T
°C
Wind Press
QNH
hPa
Press
MSL
hPa
Rain since
9am
mm
Dir  Spd
km/h
Gust
km/h
Spd
kts
Gust
kts
19/11:30pm 15.1 13.2 9.2 68 3.0 S 9 17 5 9 1017.2 1017.1 0.0
19/11:00pm 14.6 12.9 8.5 67 3.1 S 7 9 4 5 1017.3 1017.2 0.0
19/10:30pm 15.2 12.4 8.4 64 3.4 S 13 19 7 10 1017.3 1017.2 0.0
19/10:00pm 15.6 12.1 8.6 63 3.6 S 17 22 9 12 1017.3 1017.2 0.0
19/09:30pm 15.8 12.0 9.0 64 3.5 SSW 19 26 10 14 1017.1 1017.0 0.0
19/09:00pm 16.3 10.9 9.5 64 3.5 SSW 28 35 15 19 1016.7 1016.6 0.0
19/08:30pm 16.9 13.1 9.8 63 3.7 SSW 20 24 11 13 1016.5 1016.4 0.0
19/08:00pm 17.3 12.0 9.7 61 4.0 SSW 28 37 15 20 1016.2 1016.1 0.0
19/07:30pm 17.6 12.5 9.2 58 4.4 SSW 26 35 14 19 1016.1 1016.0 0.0
19/07:00pm 17.8 12.1 9.7 59 4.3 SSW 30 37 16 20 1015.9 1015.8 0.0
19/06:30pm 18.7 13.4 10.0 57 4.6 SSW 28 35 15 19 1015.7 1015.6 0.0
19/06:00pm 18.5 12.4 9.6 56 4.7 SW 32 43 17 23 1015.7 1015.6 0.0
19/05:30pm 19.2 12.9 9.1 52 5.3 SSW 32 41 17 22 1015.8 1015.7 0.0
19/05:00pm 18.3 12.5 9.6 57 4.6 SW 30 37 16 20 1015.9 1015.8 0.0
19/04:30pm 18.6 13.0 10.2 58 4.5 SW 30 41 16 22 1016.0 1015.9 0.0
19/04:00pm 20.2 14.6 10.3 53 5.3 SW 30 37 16 20 1015.9 1015.8 0.0
19/03:30pm 18.5 12.5 8.7 53 5.1 WSW 30 39 16 21 1016.2 1016.1 0.0
19/03:00pm 20.3 14.3 10.1 52 5.5 SW 32 41 17 22 1016.4 1016.3 0.0
19/02:30pm 19.9 14.2 9.8 52 5.4 SW 30 41 16 22 1016.7 1016.6 0.0
19/02:00pm 19.2 11.9 7.3 46 6.0 SW 35 46 19 25 1016.9 1016.8 0.0
19/01:30pm 18.8 13.0 10.9 60 4.3 SW 32 41 17 22 1017.0 1016.9 0.0
19/01:00pm 17.9 11.7 9.5 58 4.4 SW 32 41 17 22 1017.1 1017.0 0.0
19/12:30pm 18.5 12.2 7.6 49 5.5 SW 30 43 16 23 1017.1 1017.0 0.0
19/12:27pm 18.8 13.4 8.2 50 5.5 SW 26 43 14 23 1017.1 1017.0 0.0
19/12:00pm 17.3 15.3 11.6 69 3.1 SW 13 19 7 10 1017.6 1017.5 0.0
19/11:30am 16.2 14.8 10.9 71 2.8 S 9 17 5 9 1017.7 1017.6 0.0
19/11:00am 16.0 15.3 11.4 74 2.5 SW 6 11 3 6 1018.0 1017.9 0.0
19/10:30am 14.9 14.2 11.5 80 1.8 N 6 9 3 5 1017.8 1017.7 0.0
19/10:00am 14.4 14.2 11.9 85 1.3 N 4 9 2 5 1017.8 1017.7 0.0
19/09:30am 14.0 12.5 12.0 88 1.1 N 11 13 6 7 1017.5 1017.4 0.0
19/09:00am 13.5 12.1 12.1 91 0.8 NNE 11 13 6 7 1017.6 1017.5 2.8
19/08:30am 12.8 11.5 11.4 91 0.7 NE 9 11 5 6 1017.6 1017.5 2.8
19/08:00am 12.5 10.8 11.1 91 0.7 N 11 15 6 8 1017.3 1017.2 2.8
19/07:30am 12.6 11.2 10.8 89 0.9 NNW 9 13 5 7 1017.4 1017.3 2.2
19/07:00am 12.6 11.5 10.7 88 1.0 NW 7 9 4 5 1017.2 1017.1 1.4
19/06:30am 12.6 12.4 10.3 86 1.2 W 2 6 1 3 1016.8 1016.7 1.4
19/06:00am 12.6 11.3 10.1 85 1.3 SE 7 13 4 7 1016.5 1016.4 1.4
19/05:30am 12.7 12.5 10.6 87 1.1 E 2 9 1 5 1016.5 1016.4 1.2
19/05:00am 12.3 10.6 10.0 86 1.2 N 9 13 5 7 1016.5 1016.4 1.2
19/04:30am 12.4 11.1 10.0 85 1.2 ESE 7 9 4 5 1016.5 1016.4 1.2
19/04:00am 12.1 9.2 9.7 85 1.2 SSE 15 20 8 11 1016.7 1016.6 1.2
19/03:30am 12.7 11.4 9.9 83 1.4 SSE 7 9 4 5 1016.5 1016.4 1.2
19/03:00am 12.4 10.6 9.6 83 1.4 SSE 9 17 5 9 1016.6 1016.5 1.2
19/02:57am 12.3 10.2 9.7 84 1.3 SSE 11 19 6 10 1016.7 1016.6 1.2
19/02:41am 12.4 7.4 9.6 83 1.4 SSW 26 39 14 21 1017.2 1017.1 1.2
19/02:36am 13.2 9.8 9.1 76 2.1 SSW 17 37 9 20 1017.1 1017.0 0.8
19/02:30am 13.9 12.4 9.3 74 2.3 S 7 13 4 7 1016.9 1016.8 0.6
19/02:00am 13.8 11.8 8.8 72 2.5 S 9 13 5 7 1017.2 1017.1 0.6
19/01:30am 13.8 11.5 9.0 73 2.4 SSE 11 26 6 14 1017.7 1017.6 0.6
19/01:00am 14.7 11.6 7.3 61 3.6 S 13 15 7 8 1017.7 1017.6 0.4
19/12:30am 14.5 11.8 7.3 62 3.5 SSE 11 17 6 9 1017.7 1017.6 0.4
19/12:00am 14.6 10.3 7.2 61 3.6 SSE 19 26 10 14 1017.7 1017.6 0.4
 
Date/Time
CDT
Temp
°C
App
Temp
°C
Dew
Point
°C
Rel
Hum
%
Delta-T
°C
Wind Press
QNH
hPa
Press
MSL
hPa
Rain since
9am
mm
Dir  Spd
km/h
Gust
km/h
Spd
kts
Gust
kts
18/11:30pm 14.9 11.6 6.5 57 4.1 S 13 20 7 11 1017.5 1017.4 0.4
18/11:00pm 14.9 12.0 6.7 58 4.0 S 11 19 6 10 1017.5 1017.4 0.4
18/10:30pm 15.5 11.8 6.5 55 4.4 S 15 24 8 13 1017.7 1017.6 0.4
18/10:00pm 15.9 11.8 6.3 53 4.7 S 17 32 9 17 1017.6 1017.5 0.4
18/09:30pm 16.1 11.5 6.3 52 4.8 S 20 33 11 18 1017.2 1017.1 0.4
18/09:00pm 16.5 12.4 6.3 51 5.0 S 17 22 9 12 1016.9 1016.8 0.4

Other Formats:

Comma delimited format used in spreadsheet applications
http://www.bom.gov.au/fwo/IDS60801/IDS60801.95676.axf

JavaScript Object Notation format (JSON) in row-major order
http://www.bom.gov.au/fwo/IDS60801/IDS60801.95676.json